< < Back
Terminal Aerodrome Forecast


Current Version              Previous Versions:   1  2  3  4  5  6  7  8  9  

Terminal Aerodrome Forecast

393
FTUS42 KCAE 231100
TAFAGS
TAF
KAGS 231138Z 2312/2412 VRB05KT 5SM -RA BR OVC007
     FM231400 06006KT 2SM -RA BR OVC004
     FM232200 12007KT 4SM -RA BR BKN006 OVC015
      TEMPO 2322/2401 2SM -TSRA BR BKN008CB
     FM240400 20010KT 5SM BR VCSH OVC015=

Latest METAR

199
SAUS70 KWBC 231200 RRQ
MTRAGS
METAR KAGS 231153Z AUTO 08004KT 5SM RA BR BKN007 BKN027 OVC043 13/12
A3013 RMK AO2 SLP201 P0005 60052 70053 T01280122 10128 20094
56011


USA.gov is the U.S. government's official web portal to all federal, state and local government web resources and services.